Richmond, California
Current Conditions -  °F | °C
As of 2:53 PM on Friday 19 Dec 2014 (Local Time) from KOAK Reporting Station
Light Rain Light Rain  
Wind Chill: 57°   Ceiling: 1800
Heat Index: 57°   Visibility: 3mi
Dew Point: 53°   Wind: 13mph
Humidity: 87%   Direction: 150°SSE
Pressure: 30.13"   Gusts: NA
Location:  37.94°N, 122.34°W
Report Text: KOAK 192253Z 15011KT 3SM -RA BR OVC018 14/12 A3013 RMK AO2 RAE10B27 SLP201 P0002 T01390117
Loading
Personal Weather Stations






























Interactive Weather Map New forecast layout! Learn more

10-Day Weather Forecast

Advertisements
Track Severe Weather on mobile